SWR282 LSZH-FAOR
Flight info
| Callsign | SWR282 |
|---|---|
| Flight time | N/A |
| Altitude | 30000 |
| Route | VEBIT T53 GERSA DCT SOSON DCT ODINA DCT PIDAD/N0478F310 DCT TALEP DCT VAREK DCT ERPIN DCT ETOIL DCT CIRTA UM2 RIMEL/N0474F330 UM2 DJA UB730 DIR UG727 MIU UM998 RATOD/N0476F350 UM998 BUGRO/N0465F370 UM998 IBRIT UT941 RUDAS UQ25 ITROL/N0463F380 UQ44 AVAGO AVAGO1C |
| Aircraft | A343/H-SDE2E3FGHIJ4J5M1RWXY/LB1D1 |
Departure
| Time | 2026-05-06 18:38 |
|---|---|
| Airport | Zürich Airport (LSZH) |
Arrival
| Time | N/A |
|---|---|
| Airport | O.R. Tambo International Airport (FAOR) |
| Time | Latitude | Longitude | Altitude | Speed | Heading |
|---|---|---|---|---|---|
| 2026-05-06 18:19 | 47.46194 | 8.55380 | 1410 ft | 0 kts | 185° |
| 2026-05-06 18:27 | 47.46205 | 8.55382 | 1403 ft | 4 kts | 185° |
| 2026-05-06 18:27 | 47.46226 | 8.55385 | 1403 ft | 4 kts | 193° |
| 2026-05-06 18:28 | 47.46250 | 8.55399 | 1407 ft | 4 kts | 225° |
| 2026-05-06 18:28 | 47.46261 | 8.55430 | 1408 ft | 4 kts | 275° |
| 2026-05-06 18:28 | 47.46258 | 8.55468 | 1405 ft | 4 kts | 276° |
| 2026-05-06 18:28 | 47.46258 | 8.55477 | 1406 ft | 0 kts | 276° |
| 2026-05-06 18:31 | 47.46260 | 8.55452 | 1410 ft | 6 kts | 276° |
| 2026-05-06 18:31 | 47.46267 | 8.55346 | 1409 ft | 13 kts | 276° |
| 2026-05-06 18:31 | 47.46275 | 8.55222 | 1400 ft | 11 kts | 276° |
| 2026-05-06 18:32 | 47.46283 | 8.55114 | 1407 ft | 10 kts | 276° |
| 2026-05-06 18:32 | 47.46291 | 8.55004 | 1406 ft | 14 kts | 276° |
| 2026-05-06 18:32 | 47.46302 | 8.54835 | 1403 ft | 17 kts | 276° |
| 2026-05-06 18:32 | 47.46354 | 8.54713 | 1409 ft | 14 kts | 332° |
| 2026-05-06 18:33 | 47.46446 | 8.54648 | 1408 ft | 16 kts | 334° |
| 2026-05-06 18:33 | 47.46556 | 8.54571 | 1404 ft | 19 kts | 334° |
| 2026-05-06 18:33 | 47.46685 | 8.54481 | 1410 ft | 21 kts | 334° |
| 2026-05-06 18:33 | 47.46816 | 8.54403 | 1405 ft | 20 kts | 337° |
| 2026-05-06 18:34 | 47.46936 | 8.54324 | 1408 ft | 18 kts | 335° |
| 2026-05-06 18:34 | 47.47047 | 8.54249 | 1409 ft | 18 kts | 335° |
| 2026-05-06 18:34 | 47.47155 | 8.54175 | 1409 ft | 16 kts | 335° |
| 2026-05-06 18:34 | 47.47252 | 8.54109 | 1407 ft | 15 kts | 335° |
| 2026-05-06 18:35 | 47.47339 | 8.54050 | 1408 ft | 13 kts | 335° |
| 2026-05-06 18:35 | 47.47418 | 8.53996 | 1407 ft | 12 kts | 335° |
| 2026-05-06 18:35 | 47.47495 | 8.53944 | 1409 ft | 12 kts | 335° |
| 2026-05-06 18:35 | 47.47566 | 8.53892 | 1409 ft | 11 kts | 328° |
| 2026-05-06 18:36 | 47.47604 | 8.53792 | 1409 ft | 12 kts | 273° |
| 2026-05-06 18:36 | 47.47578 | 8.53679 | 1410 ft | 11 kts | 231° |
| 2026-05-06 18:36 | 47.47497 | 8.53653 | 1407 ft | 18 kts | 166° |
| 2026-05-06 18:36 | 47.47303 | 8.53784 | 1407 ft | 50 kts | 155° |
| 2026-05-06 18:37 | 47.46830 | 8.54107 | 1411 ft | 99 kts | 155° |
| 2026-05-06 18:37 | 47.46072 | 8.54628 | 1412 ft | 140 kts | 155° |
| 2026-05-06 18:37 | 47.45069 | 8.55311 | 1410 ft | 175 kts | 156° |
| 2026-05-06 18:37 | 47.43927 | 8.56085 | 1809 ft | 176 kts | 156° |
| 2026-05-06 18:38 | 47.42835 | 8.56925 | 2180 ft | 186 kts | 150° |
| 2026-05-06 18:38 | 47.42018 | 8.58486 | 2473 ft | 208 kts | 107° |
| 2026-05-06 18:38 | 47.42131 | 8.60686 | 2633 ft | 229 kts | 62° |
| 2026-05-06 18:38 | 47.43247 | 8.62382 | 2789 ft | 239 kts | 20° |
| 2026-05-06 18:39 | 47.44883 | 8.62706 | 2915 ft | 244 kts | 342° |
| 2026-05-06 18:39 | 47.46337 | 8.61452 | 3110 ft | 249 kts | 306° |
| 2026-05-06 18:39 | 47.47052 | 8.59098 | 3346 ft | 259 kts | 277° |
| 2026-05-06 18:40 | 47.46469 | 8.53806 | 4398 ft | 267 kts | 244° |
| 2026-05-06 18:40 | 47.45554 | 8.51398 | 4997 ft | 270 kts | 240° |
| 2026-05-06 18:40 | 47.44596 | 8.49032 | 5597 ft | 272 kts | 240° |
| 2026-05-06 18:40 | 47.43634 | 8.46619 | 6204 ft | 274 kts | 240° |
| 2026-05-06 18:41 | 47.42674 | 8.44171 | 6743 ft | 276 kts | 240° |
| 2026-05-06 18:41 | 47.41712 | 8.41698 | 7270 ft | 280 kts | 240° |
| 2026-05-06 18:41 | 47.40743 | 8.39195 | 7798 ft | 282 kts | 240° |
| 2026-05-06 18:41 | 47.39767 | 8.36670 | 8316 ft | 284 kts | 240° |
| 2026-05-06 18:42 | 47.38786 | 8.34126 | 8866 ft | 287 kts | 240° |
| 2026-05-06 18:42 | 47.37832 | 8.31513 | 9384 ft | 290 kts | 243° |
| 2026-05-06 18:42 | 47.36900 | 8.28860 | 9864 ft | 293 kts | 243° |
| 2026-05-06 18:42 | 47.35950 | 8.26171 | 10168 ft | 301 kts | 242° |
| 2026-05-06 18:43 | 47.34743 | 8.23567 | 10316 ft | 314 kts | 229° |
| 2026-05-06 18:43 | 47.33048 | 8.21523 | 10433 ft | 329 kts | 210° |
| 2026-05-06 18:43 | 47.30816 | 8.20510 | 10596 ft | 346 kts | 186° |
| 2026-05-06 18:43 | 47.28367 | 8.20813 | 10815 ft | 360 kts | 171° |
| 2026-05-06 18:44 | 47.25941 | 8.21873 | 11184 ft | 368 kts | 163° |
| 2026-05-06 18:44 | 47.23554 | 8.23293 | 11592 ft | 372 kts | 160° |
| 2026-05-06 18:44 | 47.21178 | 8.24840 | 12039 ft | 375 kts | 159° |
| 2026-05-06 18:44 | 47.18789 | 8.26395 | 12509 ft | 376 kts | 159° |
| 2026-05-06 18:45 | 47.16379 | 8.27909 | 12977 ft | 377 kts | 160° |
| 2026-05-06 18:45 | 47.13950 | 8.29375 | 13494 ft | 378 kts | 161° |
| 2026-05-06 18:45 | 47.11496 | 8.30808 | 13902 ft | 381 kts | 161° |
| 2026-05-06 18:45 | 47.09051 | 8.32207 | 14323 ft | 382 kts | 161° |
| 2026-05-06 18:46 | 47.06566 | 8.33615 | 14711 ft | 385 kts | 161° |
| 2026-05-06 18:46 | 47.04055 | 8.35033 | 15122 ft | 388 kts | 161° |
| 2026-05-06 18:46 | 47.01532 | 8.36455 | 15592 ft | 388 kts | 161° |
| 2026-05-06 18:46 | 46.99009 | 8.37879 | 16027 ft | 390 kts | 161° |
| 2026-05-06 18:47 | 46.96472 | 8.39311 | 16460 ft | 391 kts | 161° |
| 2026-05-06 18:47 | 46.93927 | 8.40748 | 16906 ft | 392 kts | 161° |
| 2026-05-06 18:47 | 46.91376 | 8.42189 | 17343 ft | 394 kts | 161° |
| 2026-05-06 18:47 | 46.88817 | 8.43634 | 17780 ft | 396 kts | 160° |
| 2026-05-06 18:48 | 46.86241 | 8.45086 | 18192 ft | 397 kts | 161° |
| 2026-05-06 18:48 | 46.83659 | 8.46536 | 18558 ft | 398 kts | 161° |
| 2026-05-06 18:48 | 46.81105 | 8.47972 | 18901 ft | 400 kts | 161° |
| 2026-05-06 18:48 | 46.78502 | 8.49434 | 19252 ft | 402 kts | 161° |
| 2026-05-06 18:49 | 46.75891 | 8.50901 | 19622 ft | 403 kts | 161° |
| 2026-05-06 18:49 | 46.73267 | 8.52372 | 20037 ft | 404 kts | 161° |
| 2026-05-06 18:49 | 46.70638 | 8.53841 | 20417 ft | 405 kts | 161° |
| 2026-05-06 18:49 | 46.67999 | 8.55314 | 20738 ft | 406 kts | 162° |
| 2026-05-06 18:50 | 46.65352 | 8.56792 | 21110 ft | 408 kts | 161° |
| 2026-05-06 18:50 | 46.62696 | 8.58248 | 21499 ft | 407 kts | 164° |
| 2026-05-06 18:50 | 46.60004 | 8.59269 | 21864 ft | 404 kts | 172° |
| 2026-05-06 18:50 | 46.57226 | 8.59905 | 22155 ft | 406 kts | 174° |
| 2026-05-06 18:51 | 46.54403 | 8.60399 | 22472 ft | 408 kts | 176° |
| 2026-05-06 18:51 | 46.51575 | 8.60811 | 22779 ft | 409 kts | 176° |
| 2026-05-06 18:51 | 46.48739 | 8.61190 | 23021 ft | 410 kts | 177° |
| 2026-05-06 18:51 | 46.45893 | 8.61556 | 23272 ft | 411 kts | 177° |
| 2026-05-06 18:52 | 46.43043 | 8.61924 | 23507 ft | 412 kts | 177° |
| 2026-05-06 18:52 | 46.40179 | 8.62312 | 23724 ft | 414 kts | 176° |
| 2026-05-06 18:52 | 46.37311 | 8.62712 | 23934 ft | 415 kts | 177° |
| 2026-05-06 18:52 | 46.34477 | 8.63111 | 24207 ft | 415 kts | 177° |
| 2026-05-06 18:53 | 46.31603 | 8.63523 | 24482 ft | 415 kts | 177° |
| 2026-05-06 18:53 | 46.28726 | 8.63933 | 24746 ft | 416 kts | 177° |
| 2026-05-06 18:53 | 46.25847 | 8.64327 | 24890 ft | 416 kts | 177° |
| 2026-05-06 18:53 | 46.22964 | 8.64717 | 25095 ft | 417 kts | 178° |
| 2026-05-06 18:54 | 46.20078 | 8.65121 | 25373 ft | 416 kts | 178° |
| 2026-05-06 18:54 | 46.17191 | 8.65532 | 25626 ft | 418 kts | 178° |
| 2026-05-06 18:54 | 46.14294 | 8.65945 | 25841 ft | 419 kts | 178° |
| 2026-05-06 18:54 | 46.11391 | 8.66353 | 26109 ft | 418 kts | 178° |
| 2026-05-06 18:55 | 46.08492 | 8.66728 | 26346 ft | 418 kts | 180° |
| 2026-05-06 18:55 | 46.05628 | 8.66882 | 26571 ft | 418 kts | 182° |
| 2026-05-06 18:55 | 46.02706 | 8.66900 | 26718 ft | 421 kts | 184° |
| 2026-05-06 18:55 | 45.99776 | 8.66873 | 26894 ft | 422 kts | 184° |
| 2026-05-06 18:56 | 45.96837 | 8.66852 | 27111 ft | 423 kts | 184° |
| 2026-05-06 18:56 | 45.93889 | 8.66855 | 27316 ft | 424 kts | 183° |
| 2026-05-06 18:56 | 45.90940 | 8.66883 | 27480 ft | 425 kts | 183° |
| 2026-05-06 18:56 | 45.87982 | 8.66929 | 27692 ft | 426 kts | 183° |
| 2026-05-06 18:57 | 45.85019 | 8.66985 | 27901 ft | 426 kts | 183° |
| 2026-05-06 18:57 | 45.82047 | 8.67045 | 28041 ft | 428 kts | 183° |
| 2026-05-06 18:57 | 45.79059 | 8.67106 | 28141 ft | 431 kts | 183° |
| 2026-05-06 18:58 | 45.73078 | 8.67227 | 28343 ft | 434 kts | 183° |
| 2026-05-06 18:58 | 45.70056 | 8.67288 | 28489 ft | 435 kts | 183° |
| 2026-05-06 18:58 | 45.67030 | 8.67349 | 28715 ft | 435 kts | 183° |
| 2026-05-06 18:58 | 45.64002 | 8.67409 | 28882 ft | 435 kts | 184° |
| 2026-05-06 18:59 | 45.60976 | 8.67469 | 29039 ft | 436 kts | 184° |
| 2026-05-06 18:59 | 45.57933 | 8.67529 | 29188 ft | 437 kts | 184° |
| 2026-05-06 18:59 | 45.54887 | 8.67589 | 29335 ft | 438 kts | 184° |
| 2026-05-06 18:59 | 45.51848 | 8.67649 | 29586 ft | 437 kts | 184° |
| 2026-05-06 19:00 | 45.48850 | 8.67709 | 29815 ft | 436 kts | 184° |
| 2026-05-06 19:00 | 45.42813 | 8.67831 | 29909 ft | 430 kts | 185° |
| 2026-05-06 19:01 | 45.36820 | 8.67947 | 29905 ft | 431 kts | 185° |
| 2026-05-06 19:01 | 45.30814 | 8.68059 | 29908 ft | 432 kts | 185° |
| 2026-05-06 19:02 | 45.24805 | 8.68175 | 29927 ft | 432 kts | 185° |
| 2026-05-06 19:02 | 45.18852 | 8.68291 | 29903 ft | 429 kts | 185° |
| 2026-05-06 19:03 | 45.12899 | 8.68407 | 29835 ft | 427 kts | 185° |
| 2026-05-06 19:03 | 45.06950 | 8.68520 | 29832 ft | 428 kts | 185° |
| 2026-05-06 19:04 | 45.01000 | 8.68634 | 29833 ft | 426 kts | 185° |
| 2026-05-06 19:04 | 44.95076 | 8.68748 | 29866 ft | 426 kts | 185° |
| 2026-05-06 19:05 | 44.89189 | 8.68860 | 29861 ft | 426 kts | 185° |
| 2026-05-06 19:05 | 44.83263 | 8.68972 | 29857 ft | 427 kts | 185° |
| 2026-05-06 19:06 | 44.77315 | 8.69085 | 29868 ft | 428 kts | 185° |
| 2026-05-06 19:06 | 44.71358 | 8.69199 | 29873 ft | 428 kts | 185° |
| 2026-05-06 19:07 | 44.65401 | 8.69313 | 29870 ft | 428 kts | 185° |
| 2026-05-06 19:07 | 44.59444 | 8.69427 | 29893 ft | 428 kts | 185° |
| 2026-05-06 19:08 | 44.53522 | 8.69538 | 29902 ft | 429 kts | 185° |
| 2026-05-06 19:08 | 44.47571 | 8.69645 | 29907 ft | 427 kts | 185° |
| 2026-05-06 19:09 | 44.41625 | 8.69758 | 29914 ft | 428 kts | 185° |
| 2026-05-06 19:09 | 44.35667 | 8.69872 | 29908 ft | 428 kts | 185° |
| 2026-05-06 19:10 | 44.29745 | 8.69984 | 29902 ft | 428 kts | 185° |
| 2026-05-06 19:10 | 44.23785 | 8.70096 | 29778 ft | 428 kts | 186° |
| 2026-05-06 19:10 | 44.20824 | 8.70154 | 29583 ft | 424 kts | 186° |
| 2026-05-06 19:11 | 44.17885 | 8.70212 | 29409 ft | 422 kts | 186° |
| 2026-05-06 19:11 | 44.14954 | 8.70266 | 29202 ft | 422 kts | 186° |
| 2026-05-06 19:11 | 44.12011 | 8.70319 | 29009 ft | 423 kts | 186° |
| 2026-05-06 19:11 | 44.09069 | 8.70371 | 28874 ft | 423 kts | 186° |
| 2026-05-06 19:12 | 44.06157 | 8.70424 | 28881 ft | 425 kts | 186° |
| 2026-05-06 19:12 | 44.00249 | 8.70532 | 28882 ft | 425 kts | 186° |
| 2026-05-06 19:13 | 43.94330 | 8.70643 | 28885 ft | 425 kts | 186° |
| 2026-05-06 19:13 | 43.88419 | 8.70753 | 28872 ft | 425 kts | 185° |
| 2026-05-06 19:14 | 43.82497 | 8.70861 | 28889 ft | 426 kts | 185° |
| 2026-05-06 19:14 | 43.76561 | 8.70971 | 28889 ft | 426 kts | 185° |
| 2026-05-06 19:15 | 43.70631 | 8.71080 | 28897 ft | 426 kts | 185° |
| 2026-05-06 19:15 | 43.64728 | 8.71187 | 28903 ft | 428 kts | 185° |
| 2026-05-06 19:16 | 43.58767 | 8.71270 | 28903 ft | 428 kts | 186° |
| 2026-05-06 19:16 | 43.52806 | 8.71256 | 28908 ft | 428 kts | 186° |
| 2026-05-06 19:17 | 43.46960 | 8.70659 | 28905 ft | 422 kts | 196° |
| 2026-05-06 19:17 | 43.41405 | 8.68135 | 29027 ft | 421 kts | 207° |
| 2026-05-06 19:18 | 43.36059 | 8.64753 | 29257 ft | 424 kts | 208° |
| 2026-05-06 19:18 | 43.33396 | 8.62996 | 29419 ft | 425 kts | 208° |
| 2026-05-06 19:18 | 43.30733 | 8.61238 | 29636 ft | 424 kts | 208° |
| 2026-05-06 19:18 | 43.28073 | 8.59491 | 29786 ft | 425 kts | 208° |
| 2026-05-06 19:19 | 43.25403 | 8.57751 | 29946 ft | 425 kts | 208° |
| 2026-05-06 19:19 | 43.22731 | 8.56020 | 30160 ft | 424 kts | 208° |
| 2026-05-06 19:19 | 43.20101 | 8.54323 | 30334 ft | 423 kts | 208° |
| 2026-05-06 19:19 | 43.17437 | 8.52610 | 30513 ft | 423 kts | 208° |
| 2026-05-06 19:20 | 43.14779 | 8.50903 | 30671 ft | 422 kts | 208° |
| 2026-05-06 19:20 | 43.12119 | 8.49195 | 30824 ft | 422 kts | 208° |
| 2026-05-06 19:20 | 43.09462 | 8.47491 | 30915 ft | 420 kts | 208° |
| 2026-05-06 19:21 | 43.04221 | 8.44137 | 30928 ft | 413 kts | 208° |
| 2026-05-06 19:21 | 42.99048 | 8.40827 | 30930 ft | 413 kts | 208° |
| 2026-05-06 19:22 | 42.93838 | 8.37499 | 30936 ft | 414 kts | 208° |
| 2026-05-06 19:22 | 42.88615 | 8.34170 | 30970 ft | 416 kts | 208° |
| 2026-05-06 19:23 | 42.83376 | 8.30839 | 30935 ft | 414 kts | 208° |
| 2026-05-06 19:23 | 42.78190 | 8.27548 | 30939 ft | 414 kts | 208° |
| 2026-05-06 19:24 | 42.72964 | 8.24236 | 30940 ft | 414 kts | 208° |
| 2026-05-06 19:24 | 42.67732 | 8.20926 | 30942 ft | 417 kts | 208° |
| 2026-05-06 19:25 | 42.62463 | 8.17599 | 30948 ft | 417 kts | 208° |
| 2026-05-06 19:25 | 42.57234 | 8.14306 | 30947 ft | 417 kts | 208° |
| 2026-05-06 19:26 | 42.51964 | 8.10992 | 30946 ft | 417 kts | 208° |
| 2026-05-06 19:26 | 42.46693 | 8.07683 | 30951 ft | 417 kts | 208° |
| 2026-05-06 19:27 | 42.41425 | 8.04383 | 30958 ft | 417 kts | 208° |
| 2026-05-06 19:27 | 42.36186 | 8.01106 | 30957 ft | 418 kts | 208° |
| 2026-05-06 19:28 | 42.30910 | 7.97813 | 30972 ft | 418 kts | 208° |
| 2026-05-06 19:28 | 42.25540 | 7.94720 | 30964 ft | 419 kts | 206° |
| 2026-05-06 19:29 | 42.20120 | 7.91822 | 30964 ft | 419 kts | 206° |
| 2026-05-06 19:29 | 42.14715 | 7.88913 | 30962 ft | 418 kts | 206° |
| 2026-05-06 19:30 | 42.09348 | 7.85983 | 30966 ft | 420 kts | 206° |
| 2026-05-06 19:30 | 42.03920 | 7.83008 | 30975 ft | 421 kts | 206° |
| 2026-05-06 19:31 | 41.98493 | 7.80039 | 30980 ft | 421 kts | 206° |
| 2026-05-06 19:31 | 41.90383 | 7.75615 | 30973 ft | 423 kts | 206° |
| 2026-05-06 19:32 | 41.84908 | 7.72634 | 30974 ft | 426 kts | 206° |
| 2026-05-06 19:32 | 41.79417 | 7.69653 | 30974 ft | 425 kts | 206° |
| 2026-05-06 19:33 | 41.73932 | 7.66680 | 30973 ft | 426 kts | 206° |
| 2026-05-06 19:33 | 41.68431 | 7.63703 | 30974 ft | 428 kts | 206° |
| 2026-05-06 19:34 | 41.62942 | 7.60738 | 30974 ft | 429 kts | 206° |
| 2026-05-06 19:34 | 41.57347 | 7.57943 | 30984 ft | 432 kts | 200° |
| 2026-05-06 19:35 | 41.51459 | 7.56282 | 30961 ft | 432 kts | 195° |
| 2026-05-06 19:35 | 41.45541 | 7.54910 | 30979 ft | 436 kts | 194° |
| 2026-05-06 19:36 | 41.39554 | 7.53571 | 30977 ft | 436 kts | 194° |
| 2026-05-06 19:36 | 41.33569 | 7.52219 | 30980 ft | 436 kts | 195° |
| 2026-05-06 19:37 | 41.27582 | 7.50851 | 30979 ft | 438 kts | 194° |
| 2026-05-06 19:37 | 41.22587 | 7.49706 | 30982 ft | 439 kts | 194° |
| 2026-05-06 19:38 | 41.15590 | 7.48108 | 30982 ft | 439 kts | 194° |
| 2026-05-06 19:38 | 41.09569 | 7.46737 | 30968 ft | 439 kts | 194° |
| 2026-05-06 19:39 | 41.03541 | 7.45366 | 30982 ft | 440 kts | 194° |
| 2026-05-06 19:39 | 40.97500 | 7.43996 | 30982 ft | 440 kts | 194° |
| 2026-05-06 19:40 | 40.91461 | 7.42629 | 30982 ft | 440 kts | 194° |
| 2026-05-06 19:40 | 40.85460 | 7.41272 | 30984 ft | 441 kts | 194° |
| 2026-05-06 19:41 | 40.79400 | 7.39904 | 30976 ft | 442 kts | 194° |
| 2026-05-06 19:41 | 40.73339 | 7.38539 | 30974 ft | 442 kts | 194° |
| 2026-05-06 19:42 | 40.67280 | 7.37177 | 30966 ft | 442 kts | 194° |
| 2026-05-06 19:42 | 40.61258 | 7.35826 | 30982 ft | 442 kts | 194° |
| 2026-05-06 19:43 | 40.55192 | 7.34467 | 30982 ft | 442 kts | 194° |
| 2026-05-06 19:43 | 40.49121 | 7.33110 | 30974 ft | 443 kts | 194° |
| 2026-05-06 19:44 | 40.43048 | 7.31755 | 30978 ft | 442 kts | 194° |
| 2026-05-06 19:44 | 40.37021 | 7.30412 | 30975 ft | 443 kts | 194° |
| 2026-05-06 19:45 | 40.30948 | 7.29061 | 30977 ft | 443 kts | 194° |
| 2026-05-06 19:45 | 40.24876 | 7.27714 | 30982 ft | 443 kts | 194° |
| 2026-05-06 19:46 | 40.18796 | 7.26366 | 30979 ft | 444 kts | 194° |
| 2026-05-06 19:46 | 40.12750 | 7.25029 | 30977 ft | 444 kts | 194° |
| 2026-05-06 19:47 | 40.06665 | 7.23686 | 30976 ft | 444 kts | 194° |
| 2026-05-06 19:47 | 40.00576 | 7.22345 | 30978 ft | 444 kts | 194° |
| 2026-05-06 19:48 | 39.94480 | 7.21003 | 30979 ft | 445 kts | 194° |
| 2026-05-06 19:48 | 39.88418 | 7.19672 | 30979 ft | 445 kts | 194° |
| 2026-05-06 19:49 | 39.82316 | 7.18335 | 30976 ft | 445 kts | 194° |
| 2026-05-06 19:49 | 39.76209 | 7.16998 | 30976 ft | 447 kts | 194° |
| 2026-05-06 19:50 | 39.70047 | 7.15684 | 30976 ft | 450 kts | 193° |
| 2026-05-06 19:50 | 39.63884 | 7.14590 | 30977 ft | 450 kts | 192° |
| 2026-05-06 19:51 | 39.57676 | 7.13535 | 30969 ft | 450 kts | 192° |
| 2026-05-06 19:51 | 39.51455 | 7.12448 | 30978 ft | 452 kts | 192° |
| 2026-05-06 19:52 | 39.45222 | 7.11340 | 30976 ft | 452 kts | 192° |
| 2026-05-06 19:52 | 39.38988 | 7.10229 | 30976 ft | 452 kts | 192° |
| 2026-05-06 19:53 | 39.32791 | 7.09127 | 30973 ft | 453 kts | 192° |
| 2026-05-06 19:53 | 39.26527 | 7.08015 | 30977 ft | 455 kts | 192° |
| 2026-05-06 19:54 | 39.20262 | 7.06907 | 30971 ft | 455 kts | 192° |
| 2026-05-06 19:54 | 39.13989 | 7.05799 | 30972 ft | 455 kts | 192° |
| 2026-05-06 19:55 | 39.07761 | 7.04701 | 30977 ft | 455 kts | 192° |
| 2026-05-06 19:55 | 39.01487 | 7.03596 | 30979 ft | 455 kts | 192° |
| 2026-05-06 19:56 | 38.95208 | 7.02520 | 30976 ft | 456 kts | 191° |
| 2026-05-06 19:56 | 38.88914 | 7.01510 | 30971 ft | 456 kts | 191° |
| 2026-05-06 19:57 | 38.82664 | 7.00512 | 30977 ft | 456 kts | 191° |
| 2026-05-06 19:57 | 38.76371 | 6.99498 | 30960 ft | 455 kts | 191° |
| 2026-05-06 19:58 | 38.70081 | 6.98481 | 30976 ft | 456 kts | 191° |
| 2026-05-06 19:58 | 38.63794 | 6.97466 | 30971 ft | 455 kts | 192° |
| 2026-05-06 19:59 | 38.57517 | 6.96453 | 30966 ft | 455 kts | 192° |
| 2026-05-06 19:59 | 38.51278 | 6.95449 | 30965 ft | 455 kts | 192° |
| 2026-05-06 20:00 | 38.44999 | 6.94440 | 30961 ft | 455 kts | 192° |
| 2026-05-06 20:00 | 38.38728 | 6.93436 | 30968 ft | 454 kts | 192° |
| 2026-05-06 20:01 | 38.32455 | 6.92431 | 30965 ft | 454 kts | 192° |
| 2026-05-06 20:01 | 38.26229 | 6.91436 | 30963 ft | 454 kts | 192° |
| 2026-05-06 20:02 | 38.19958 | 6.90436 | 30965 ft | 454 kts | 192° |
| 2026-05-06 20:02 | 38.13688 | 6.89438 | 30965 ft | 454 kts | 192° |
| 2026-05-06 20:03 | 38.07413 | 6.88441 | 30964 ft | 454 kts | 192° |
| 2026-05-06 20:03 | 38.01142 | 6.87446 | 30962 ft | 454 kts | 192° |
| 2026-05-06 20:04 | 37.94911 | 6.86460 | 30953 ft | 453 kts | 193° |
| 2026-05-06 20:04 | 37.88660 | 6.85472 | 30957 ft | 452 kts | 193° |
| 2026-05-06 20:05 | 37.82415 | 6.84485 | 30953 ft | 452 kts | 193° |
| 2026-05-06 20:05 | 37.76160 | 6.83498 | 30957 ft | 454 kts | 192° |
| 2026-05-06 20:06 | 37.69941 | 6.82521 | 30948 ft | 452 kts | 193° |
| 2026-05-06 20:06 | 37.63705 | 6.81543 | 30955 ft | 451 kts | 193° |
| 2026-05-06 20:07 | 37.57475 | 6.80566 | 30947 ft | 451 kts | 193° |
| 2026-05-06 20:07 | 37.51243 | 6.79589 | 30928 ft | 451 kts | 195° |
| 2026-05-06 20:08 | 37.45072 | 6.78629 | 30951 ft | 448 kts | 195° |
| 2026-05-06 20:08 | 37.38901 | 6.77667 | 30949 ft | 447 kts | 195° |
| 2026-05-06 20:09 | 37.32727 | 6.76702 | 30946 ft | 447 kts | 195° |
| 2026-05-06 20:09 | 37.26555 | 6.75743 | 30932 ft | 447 kts | 197° |
| 2026-05-06 20:10 | 37.20399 | 6.74792 | 30947 ft | 444 kts | 198° |
| 2026-05-06 20:10 | 37.14320 | 6.73850 | 30947 ft | 443 kts | 198° |
| 2026-05-06 20:11 | 37.08194 | 6.72899 | 30944 ft | 443 kts | 198° |
| 2026-05-06 20:11 | 37.02074 | 6.71953 | 30938 ft | 443 kts | 199° |
| 2026-05-06 20:12 | 36.96988 | 6.71170 | 30947 ft | 442 kts | 199° |
| 2026-05-06 20:12 | 36.89879 | 6.70091 | 30946 ft | 444 kts | 199° |
| 2026-05-06 20:13 | 36.83760 | 6.69141 | 30939 ft | 442 kts | 199° |
| 2026-05-06 20:13 | 36.78674 | 6.68385 | 30944 ft | 442 kts | 199° |
| 2026-05-06 20:14 | 36.72573 | 6.67437 | 30941 ft | 441 kts | 199° |
| 2026-05-06 20:14 | 36.65489 | 6.66337 | 30945 ft | 442 kts | 199° |
| 2026-05-06 20:15 | 36.59386 | 6.65401 | 30955 ft | 442 kts | 199° |
| 2026-05-06 20:15 | 36.53290 | 6.64476 | 30941 ft | 442 kts | 200° |
| 2026-05-06 20:16 | 36.48208 | 6.63694 | 30958 ft | 443 kts | 200° |
| 2026-05-06 20:16 | 36.42093 | 6.62756 | 30964 ft | 443 kts | 200° |
| 2026-05-06 20:17 | 36.35978 | 6.61838 | 30969 ft | 442 kts | 200° |
| 2026-05-06 20:17 | 36.29850 | 6.61220 | 30945 ft | 455 kts | 191° |
| 2026-05-06 20:18 | 36.26648 | 6.61574 | 30976 ft | 468 kts | 184° |
| 2026-05-06 20:18 | 36.23423 | 6.62249 | 30967 ft | 471 kts | 182° |
| 2026-05-06 20:18 | 36.16971 | 6.63883 | 30965 ft | 475 kts | 181° |
| 2026-05-06 20:19 | 36.10511 | 6.65603 | 30970 ft | 475 kts | 181° |
| 2026-05-06 20:19 | 36.04092 | 6.67276 | 30948 ft | 474 kts | 181° |
| 2026-05-06 20:20 | 35.97648 | 6.68926 | 30955 ft | 472 kts | 181° |
| 2026-05-06 20:20 | 35.91209 | 6.70557 | 30955 ft | 472 kts | 181° |
| 2026-05-06 20:21 | 35.84813 | 6.72176 | 30954 ft | 472 kts | 181° |
| 2026-05-06 20:21 | 35.78377 | 6.73805 | 30954 ft | 472 kts | 181° |
| 2026-05-06 20:22 | 35.71937 | 6.75433 | 30952 ft | 472 kts | 181° |
| 2026-05-06 20:22 | 35.65499 | 6.77058 | 30957 ft | 473 kts | 181° |
| 2026-05-06 20:23 | 35.59104 | 6.78671 | 30955 ft | 472 kts | 181° |
| 2026-05-06 20:23 | 35.52665 | 6.80289 | 30952 ft | 473 kts | 181° |
| 2026-05-06 20:24 | 35.46215 | 6.81907 | 30954 ft | 473 kts | 181° |
| 2026-05-06 20:24 | 35.39763 | 6.83526 | 30947 ft | 473 kts | 181° |
| 2026-05-06 20:25 | 35.33360 | 6.85129 | 30945 ft | 473 kts | 181° |
| 2026-05-06 20:25 | 35.26906 | 6.86740 | 30940 ft | 473 kts | 181° |
| 2026-05-06 20:26 | 35.20453 | 6.88351 | 30943 ft | 473 kts | 181° |
| 2026-05-06 20:26 | 35.14006 | 6.89958 | 30930 ft | 473 kts | 181° |
| 2026-05-06 20:27 | 35.07601 | 6.91552 | 30931 ft | 473 kts | 181° |
| 2026-05-06 20:27 | 35.01155 | 6.93153 | 30905 ft | 472 kts | 180° |
| 2026-05-06 20:28 | 34.94728 | 6.94750 | 30908 ft | 471 kts | 180° |
| 2026-05-06 20:28 | 34.88314 | 6.96338 | 30878 ft | 470 kts | 180° |
| 2026-05-06 20:29 | 34.81949 | 6.97907 | 30857 ft | 470 kts | 180° |
| 2026-05-06 20:29 | 34.75548 | 6.99502 | 30857 ft | 468 kts | 179° |
| 2026-05-06 20:30 | 34.66044 | 7.01922 | 30847 ft | 464 kts | 179° |
| 2026-05-06 20:31 | 34.59729 | 7.03517 | 30823 ft | 464 kts | 179° |
| 2026-05-06 20:31 | 34.53448 | 7.05099 | 30823 ft | 464 kts | 179° |
| 2026-05-06 20:32 | 34.47142 | 7.06688 | 30812 ft | 462 kts | 179° |
| 2026-05-06 20:32 | 34.40854 | 7.08270 | 30808 ft | 461 kts | 179° |
| 2026-05-06 20:33 | 34.34570 | 7.09845 | 30808 ft | 461 kts | 179° |
| 2026-05-06 20:33 | 34.28328 | 7.11409 | 30804 ft | 461 kts | 179° |
| 2026-05-06 20:34 | 34.22037 | 7.12982 | 30808 ft | 462 kts | 179° |
| 2026-05-06 20:34 | 34.15737 | 7.14555 | 30805 ft | 462 kts | 179° |
| 2026-05-06 20:35 | 34.09436 | 7.16128 | 30798 ft | 462 kts | 179° |
| 2026-05-06 20:35 | 34.03175 | 7.17688 | 30805 ft | 462 kts | 179° |
| 2026-05-06 20:36 | 33.96870 | 7.19255 | 30805 ft | 464 kts | 179° |
| 2026-05-06 20:36 | 33.90542 | 7.20824 | 30805 ft | 465 kts | 179° |
| 2026-05-06 20:37 | 33.84210 | 7.22396 | 30798 ft | 465 kts | 179° |
| 2026-05-06 20:37 | 33.77920 | 7.23955 | 30801 ft | 464 kts | 179° |
| 2026-05-06 20:38 | 33.71591 | 7.25519 | 30796 ft | 464 kts | 178° |
| 2026-05-06 20:38 | 33.65266 | 7.27081 | 30806 ft | 464 kts | 178° |
| 2026-05-06 20:39 | 33.58943 | 7.28639 | 30803 ft | 464 kts | 178° |
| 2026-05-06 20:39 | 33.52664 | 7.30185 | 30805 ft | 464 kts | 178° |
| 2026-05-06 20:40 | 33.46338 | 7.31739 | 30786 ft | 464 kts | 178° |
| 2026-05-06 20:40 | 33.40026 | 7.33289 | 30804 ft | 463 kts | 178° |
| 2026-05-06 20:41 | 33.33721 | 7.34834 | 30805 ft | 462 kts | 178° |
| 2026-05-06 20:41 | 33.27457 | 7.36366 | 30805 ft | 462 kts | 178° |
| 2026-05-06 20:42 | 33.21156 | 7.37905 | 30804 ft | 462 kts | 178° |
| 2026-05-06 20:42 | 33.14851 | 7.39442 | 30801 ft | 462 kts | 178° |
| 2026-05-06 20:43 | 33.08547 | 7.40977 | 30801 ft | 462 kts | 178° |
| 2026-05-06 20:43 | 33.02285 | 7.42500 | 30799 ft | 462 kts | 178° |
| 2026-05-06 20:44 | 32.95979 | 7.44032 | 30798 ft | 462 kts | 178° |
| 2026-05-06 20:44 | 32.89675 | 7.45560 | 30796 ft | 463 kts | 177° |
| 2026-05-06 20:45 | 32.83348 | 7.47091 | 30792 ft | 464 kts | 177° |
| 2026-05-06 20:45 | 32.77017 | 7.48623 | 30792 ft | 464 kts | 177° |
| 2026-05-06 20:46 | 32.70722 | 7.50144 | 30791 ft | 464 kts | 177° |
| 2026-05-06 20:46 | 32.64394 | 7.51670 | 30781 ft | 464 kts | 177° |
| 2026-05-06 20:47 | 32.58064 | 7.53194 | 30789 ft | 464 kts | 177° |
| 2026-05-06 20:47 | 32.51791 | 7.54703 | 30790 ft | 463 kts | 177° |
| 2026-05-06 20:48 | 32.45517 | 7.56208 | 30796 ft | 464 kts | 177° |
| 2026-05-06 20:48 | 32.39191 | 7.57725 | 30788 ft | 463 kts | 177° |
| 2026-05-06 20:49 | 32.32865 | 7.59237 | 30794 ft | 464 kts | 176° |
| 2026-05-06 20:49 | 32.26520 | 7.60753 | 30787 ft | 465 kts | 176° |
| 2026-05-06 20:50 | 32.24270 | 7.61291 | 30791 ft | 465 kts | 176° |
| 2026-05-06 20:50 | 32.17919 | 7.62808 | 30789 ft | 465 kts | 176° |
| 2026-05-06 20:51 | 32.11570 | 7.64321 | 30775 ft | 465 kts | 176° |
| 2026-05-06 20:51 | 32.05191 | 7.65835 | 30793 ft | 471 kts | 176° |
| 2026-05-06 20:52 | 31.98779 | 7.67355 | 30792 ft | 474 kts | 175° |
| 2026-05-06 20:52 | 31.92327 | 7.68890 | 30791 ft | 473 kts | 175° |
| 2026-05-06 20:53 | 31.85867 | 7.70422 | 30792 ft | 473 kts | 175° |
| 2026-05-06 20:53 | 31.79402 | 7.71950 | 30795 ft | 476 kts | 176° |
| 2026-05-06 20:54 | 31.72917 | 7.73484 | 30795 ft | 480 kts | 176° |
| 2026-05-06 20:54 | 31.66377 | 7.75070 | 30794 ft | 480 kts | 176° |
| 2026-05-06 20:55 | 31.59843 | 7.76658 | 30793 ft | 479 kts | 176° |
| 2026-05-06 20:55 | 31.53306 | 7.78239 | 30790 ft | 479 kts | 175° |
| 2026-05-06 20:56 | 31.46820 | 7.79802 | 30803 ft | 479 kts | 175° |
| 2026-05-06 20:56 | 31.40290 | 7.81372 | 30799 ft | 479 kts | 175° |
| 2026-05-06 20:57 | 31.33758 | 7.82940 | 30802 ft | 479 kts | 175° |
| 2026-05-06 20:57 | 31.27230 | 7.84505 | 30783 ft | 479 kts | 175° |
| 2026-05-06 20:58 | 31.20711 | 7.86063 | 30801 ft | 483 kts | 175° |
| 2026-05-06 20:58 | 31.14119 | 7.87640 | 30795 ft | 484 kts | 175° |
| 2026-05-06 20:59 | 31.07528 | 7.89216 | 30802 ft | 484 kts | 175° |
| 2026-05-06 20:59 | 31.00974 | 7.90780 | 30804 ft | 484 kts | 175° |
| 2026-05-06 21:00 | 30.94388 | 7.92349 | 30804 ft | 483 kts | 175° |
| 2026-05-06 21:00 | 30.87803 | 7.93914 | 30806 ft | 483 kts | 175° |
| 2026-05-06 21:01 | 30.81221 | 7.95477 | 30802 ft | 483 kts | 175° |
| 2026-05-06 21:01 | 30.74639 | 7.97038 | 30787 ft | 483 kts | 174° |
| 2026-05-06 21:02 | 30.68080 | 7.98591 | 30799 ft | 487 kts | 175° |
| 2026-05-06 21:02 | 30.61429 | 8.00162 | 30800 ft | 488 kts | 175° |
| 2026-05-06 21:03 | 30.54781 | 8.01734 | 30803 ft | 488 kts | 175° |
| 2026-05-06 21:03 | 30.48176 | 8.03294 | 30807 ft | 487 kts | 175° |
| 2026-05-06 21:04 | 30.41529 | 8.04860 | 30808 ft | 487 kts | 175° |
| 2026-05-06 21:04 | 30.34887 | 8.06421 | 30815 ft | 487 kts | 175° |
| 2026-05-06 21:05 | 30.28245 | 8.07980 | 30812 ft | 487 kts | 175° |
| 2026-05-06 21:05 | 30.21629 | 8.09535 | 30809 ft | 488 kts | 175° |
| 2026-05-06 21:06 | 30.14975 | 8.11095 | 30815 ft | 488 kts | 175° |
| 2026-05-06 21:06 | 30.08332 | 8.12648 | 30813 ft | 487 kts | 175° |
| 2026-05-06 21:07 | 30.01700 | 8.14202 | 30812 ft | 486 kts | 174° |
| 2026-05-06 21:07 | 29.95069 | 8.15779 | 30813 ft | 487 kts | 174° |
| 2026-05-06 21:08 | 29.88473 | 8.17351 | 30817 ft | 487 kts | 174° |
| 2026-05-06 21:08 | 29.81846 | 8.18925 | 30816 ft | 487 kts | 174° |
| 2026-05-06 21:09 | 29.75210 | 8.20496 | 30818 ft | 487 kts | 174° |
| 2026-05-06 21:09 | 29.68569 | 8.22065 | 30819 ft | 487 kts | 174° |
| 2026-05-06 21:10 | 29.61976 | 8.23622 | 30817 ft | 487 kts | 174° |
| 2026-05-06 21:10 | 29.55343 | 8.25187 | 30809 ft | 487 kts | 174° |
| 2026-05-06 21:11 | 29.48698 | 8.26750 | 30818 ft | 488 kts | 174° |
| 2026-05-06 21:11 | 29.42052 | 8.28313 | 30818 ft | 488 kts | 174° |
| 2026-05-06 21:12 | 29.35451 | 8.29863 | 30817 ft | 487 kts | 174° |
| 2026-05-06 21:12 | 29.28809 | 8.31421 | 30818 ft | 487 kts | 174° |
| 2026-05-06 21:13 | 29.22161 | 8.32977 | 30822 ft | 488 kts | 174° |
| 2026-05-06 21:13 | 29.15513 | 8.34532 | 30825 ft | 488 kts | 174° |
| 2026-05-06 21:14 | 29.08911 | 8.36075 | 30824 ft | 487 kts | 174° |
| 2026-05-06 21:14 | 29.02273 | 8.37624 | 30825 ft | 487 kts | 174° |
| 2026-05-06 21:15 | 28.95637 | 8.39169 | 30832 ft | 487 kts | 174° |
| 2026-05-06 21:15 | 28.88986 | 8.40716 | 30831 ft | 488 kts | 174° |
| 2026-05-06 21:16 | 28.82375 | 8.42252 | 30819 ft | 488 kts | 174° |
| 2026-05-06 21:16 | 28.75721 | 8.43797 | 30819 ft | 488 kts | 174° |
| 2026-05-06 21:17 | 28.69069 | 8.45338 | 30813 ft | 488 kts | 174° |
| 2026-05-06 21:17 | 28.62399 | 8.46881 | 30823 ft | 490 kts | 174° |
| 2026-05-06 21:18 | 28.55753 | 8.48417 | 30834 ft | 491 kts | 174° |
| 2026-05-06 21:18 | 28.49060 | 8.49963 | 30833 ft | 491 kts | 174° |
| 2026-05-06 21:19 | 28.42364 | 8.51508 | 30835 ft | 491 kts | 174° |
| 2026-05-06 21:19 | 28.35675 | 8.53048 | 30830 ft | 491 kts | 174° |
| 2026-05-06 21:20 | 28.28988 | 8.54585 | 30833 ft | 490 kts | 174° |
| 2026-05-06 21:20 | 28.22350 | 8.56109 | 30830 ft | 490 kts | 174° |
| 2026-05-06 21:21 | 28.15661 | 8.57644 | 30830 ft | 490 kts | 174° |
| 2026-05-06 21:21 | 28.08974 | 8.59175 | 30817 ft | 490 kts | 174° |
| 2026-05-06 21:22 | 28.02302 | 8.60716 | 30829 ft | 489 kts | 174° |
| 2026-05-06 21:22 | 27.95690 | 8.62252 | 30829 ft | 488 kts | 174° |
| 2026-05-06 21:23 | 27.89031 | 8.63794 | 30829 ft | 488 kts | 174° |
| 2026-05-06 21:23 | 27.82369 | 8.65333 | 30832 ft | 488 kts | 174° |
| 2026-05-06 21:24 | 27.75757 | 8.66858 | 30832 ft | 488 kts | 174° |
| 2026-05-06 21:24 | 27.69100 | 8.68391 | 30838 ft | 488 kts | 174° |
| 2026-05-06 21:25 | 27.62443 | 8.69923 | 30838 ft | 488 kts | 174° |
| 2026-05-06 21:25 | 27.55791 | 8.71452 | 30833 ft | 488 kts | 174° |
| 2026-05-06 21:26 | 27.49169 | 8.72971 | 30838 ft | 489 kts | 174° |
| 2026-05-06 21:26 | 27.42501 | 8.74499 | 30840 ft | 489 kts | 174° |
| 2026-05-06 21:27 | 27.35831 | 8.76026 | 30837 ft | 489 kts | 174° |
| 2026-05-06 21:27 | 27.29160 | 8.77552 | 30838 ft | 489 kts | 174° |
| 2026-05-06 21:28 | 27.22494 | 8.79075 | 30835 ft | 489 kts | 174° |
| 2026-05-06 21:28 | 27.15865 | 8.80586 | 30832 ft | 490 kts | 174° |
| 2026-05-06 21:29 | 27.09190 | 8.82107 | 30838 ft | 490 kts | 174° |
| 2026-05-06 21:29 | 27.02505 | 8.83628 | 30838 ft | 490 kts | 174° |
| 2026-05-06 21:30 | 26.95823 | 8.85150 | 30854 ft | 490 kts | 174° |
| 2026-05-06 21:30 | 26.89185 | 8.86672 | 30830 ft | 490 kts | 174° |
| 2026-05-06 21:31 | 26.82497 | 8.88205 | 30862 ft | 492 kts | 174° |
| 2026-05-06 21:31 | 26.75787 | 8.89740 | 30861 ft | 492 kts | 174° |
| 2026-05-06 21:32 | 26.69080 | 8.91272 | 30849 ft | 492 kts | 174° |
| 2026-05-06 21:32 | 26.59062 | 8.93557 | 30850 ft | 492 kts | 174° |
| 2026-05-06 21:33 | 26.52348 | 8.95085 | 30856 ft | 493 kts | 174° |
| 2026-05-06 21:33 | 26.45622 | 8.96614 | 30865 ft | 493 kts | 174° |
| 2026-05-06 21:34 | 26.38900 | 8.98142 | 30865 ft | 493 kts | 174° |
| 2026-05-06 21:34 | 26.32174 | 8.99668 | 30879 ft | 493 kts | 174° |
| 2026-05-06 21:35 | 26.25491 | 9.01182 | 30873 ft | 493 kts | 174° |
| 2026-05-06 21:35 | 26.18763 | 9.02705 | 30887 ft | 493 kts | 174° |
| 2026-05-06 21:36 | 26.12039 | 9.04225 | 30891 ft | 493 kts | 174° |
| 2026-05-06 21:36 | 26.05365 | 9.05731 | 30894 ft | 493 kts | 174° |
| 2026-05-06 21:37 | 25.98641 | 9.07247 | 30894 ft | 493 kts | 174° |
| 2026-05-06 21:37 | 25.91923 | 9.08775 | 30900 ft | 492 kts | 174° |
| 2026-05-06 21:38 | 25.85210 | 9.10301 | 30894 ft | 492 kts | 174° |
| 2026-05-06 21:38 | 25.78496 | 9.11825 | 30903 ft | 493 kts | 174° |
| 2026-05-06 21:39 | 25.71824 | 9.13336 | 30908 ft | 492 kts | 174° |
| 2026-05-06 21:39 | 25.65107 | 9.14854 | 30898 ft | 493 kts | 174° |
| 2026-05-06 21:40 | 25.58382 | 9.16373 | 30918 ft | 494 kts | 174° |
| 2026-05-06 21:40 | 25.51649 | 9.17893 | 30920 ft | 494 kts | 174° |
| 2026-05-06 21:41 | 25.44966 | 9.19402 | 30930 ft | 493 kts | 174° |
| 2026-05-06 21:41 | 25.38240 | 9.20917 | 30930 ft | 494 kts | 174° |
| 2026-05-06 21:42 | 25.31506 | 9.22430 | 30942 ft | 494 kts | 174° |
| 2026-05-06 21:42 | 25.24769 | 9.23944 | 30941 ft | 493 kts | 174° |
| 2026-05-06 21:43 | 25.18089 | 9.25444 | 30949 ft | 493 kts | 174° |
| 2026-05-06 21:43 | 25.11356 | 9.26954 | 30951 ft | 494 kts | 174° |
| 2026-05-06 21:44 | 25.04629 | 9.28460 | 30951 ft | 493 kts | 174° |
| 2026-05-06 21:44 | 24.97892 | 9.29965 | 30949 ft | 495 kts | 174° |
| 2026-05-06 21:45 | 24.91174 | 9.31466 | 30947 ft | 496 kts | 174° |
| 2026-05-06 21:45 | 24.84410 | 9.32976 | 30934 ft | 496 kts | 174° |
| 2026-05-06 21:46 | 24.77646 | 9.34484 | 30938 ft | 496 kts | 174° |
| 2026-05-06 21:46 | 24.70883 | 9.35991 | 30915 ft | 496 kts | 173° |
| 2026-05-06 21:47 | 24.64173 | 9.37485 | 30925 ft | 495 kts | 173° |
| 2026-05-06 21:47 | 24.57426 | 9.38984 | 30959 ft | 495 kts | 173° |
| 2026-05-06 21:48 | 24.50677 | 9.40480 | 30980 ft | 495 kts | 173° |
| 2026-05-06 21:48 | 24.43928 | 9.41976 | 31001 ft | 495 kts | 173° |
| 2026-05-06 21:49 | 24.37222 | 9.43461 | 31020 ft | 495 kts | 173° |
| 2026-05-06 21:49 | 24.30493 | 9.45094 | 31020 ft | 499 kts | 167° |
| 2026-05-06 21:50 | 24.24134 | 9.48273 | 31020 ft | 506 kts | 155° |
| 2026-05-06 21:50 | 24.18013 | 9.52124 | 31003 ft | 508 kts | 153° |
| 2026-05-06 21:51 | 24.11937 | 9.56075 | 30977 ft | 508 kts | 153° |
| 2026-05-06 21:51 | 24.05892 | 9.59982 | 30943 ft | 509 kts | 153° |
| 2026-05-06 21:52 | 23.99771 | 9.63903 | 30910 ft | 511 kts | 154° |
| 2026-05-06 21:52 | 23.93634 | 9.67819 | 30895 ft | 511 kts | 154° |
| 2026-05-06 21:53 | 23.87494 | 9.71732 | 30901 ft | 511 kts | 154° |
| 2026-05-06 21:53 | 23.81398 | 9.75615 | 30887 ft | 511 kts | 154° |
| 2026-05-06 21:54 | 23.75261 | 9.79519 | 30872 ft | 511 kts | 153° |
| 2026-05-06 21:54 | 23.69119 | 9.83422 | 30880 ft | 511 kts | 153° |
| 2026-05-06 21:55 | 23.62964 | 9.87329 | 30882 ft | 513 kts | 153° |
| 2026-05-06 21:55 | 23.56837 | 9.91214 | 30899 ft | 513 kts | 153° |
| 2026-05-06 21:56 | 23.50667 | 9.95123 | 30876 ft | 513 kts | 153° |
| 2026-05-06 21:56 | 23.44500 | 9.99026 | 30894 ft | 513 kts | 153° |
| 2026-05-06 21:57 | 23.38325 | 10.02928 | 30871 ft | 514 kts | 153° |
| 2026-05-06 21:57 | 23.32184 | 10.06805 | 30873 ft | 514 kts | 153° |
| 2026-05-06 21:58 | 23.25994 | 10.10709 | 30870 ft | 514 kts | 153° |
| 2026-05-06 21:58 | 23.19806 | 10.14608 | 30874 ft | 514 kts | 153° |
| 2026-05-06 21:59 | 23.13617 | 10.18503 | 30865 ft | 514 kts | 153° |
| 2026-05-06 21:59 | 23.07469 | 10.22368 | 30853 ft | 514 kts | 153° |
| 2026-05-06 22:00 | 23.01266 | 10.26263 | 30867 ft | 515 kts | 153° |
| 2026-05-06 22:00 | 22.95060 | 10.30156 | 30873 ft | 515 kts | 153° |
| 2026-05-06 22:01 | 22.88851 | 10.34047 | 30868 ft | 515 kts | 153° |
| 2026-05-06 22:01 | 22.82682 | 10.37908 | 30866 ft | 515 kts | 153° |
| 2026-05-06 22:02 | 22.76474 | 10.41790 | 30866 ft | 515 kts | 153° |
| 2026-05-06 22:02 | 22.70256 | 10.45674 | 30864 ft | 516 kts | 153° |
| 2026-05-06 22:03 | 22.64030 | 10.49559 | 30866 ft | 517 kts | 153° |
| 2026-05-06 22:03 | 22.57894 | 10.53518 | 30862 ft | 517 kts | 151° |
| 2026-05-06 22:04 | 22.51794 | 10.57665 | 30876 ft | 518 kts | 151° |
| 2026-05-06 22:04 | 22.45688 | 10.61809 | 30864 ft | 519 kts | 151° |
| 2026-05-06 22:05 | 22.39555 | 10.65930 | 30862 ft | 519 kts | 151° |
| 2026-05-06 22:05 | 22.33460 | 10.70005 | 30862 ft | 518 kts | 151° |
| 2026-05-06 22:06 | 22.27323 | 10.74100 | 30862 ft | 518 kts | 151° |
| 2026-05-06 22:06 | 22.21186 | 10.78191 | 30857 ft | 518 kts | 151° |
| 2026-05-06 22:07 | 22.15088 | 10.82254 | 30855 ft | 518 kts | 151° |
| 2026-05-06 22:07 | 22.08950 | 10.86340 | 30840 ft | 518 kts | 151° |
| 2026-05-06 22:08 | 22.02812 | 10.90421 | 30854 ft | 518 kts | 151° |
| 2026-05-06 22:08 | 21.96678 | 10.94496 | 30853 ft | 518 kts | 151° |
| 2026-05-06 22:09 | 21.90539 | 10.98569 | 30851 ft | 518 kts | 152° |
| 2026-05-06 22:09 | 21.84442 | 11.02610 | 30854 ft | 518 kts | 152° |
| 2026-05-06 22:10 | 21.78303 | 11.06676 | 30848 ft | 518 kts | 152° |
| 2026-05-06 22:10 | 21.72161 | 11.10738 | 30842 ft | 518 kts | 151° |
| 2026-05-06 22:11 | 21.66031 | 11.14790 | 30845 ft | 517 kts | 151° |
| 2026-05-06 22:11 | 21.59939 | 11.18811 | 30848 ft | 517 kts | 152° |
| 2026-05-06 22:12 | 21.53809 | 11.22854 | 30841 ft | 517 kts | 152° |
| 2026-05-06 22:12 | 21.47676 | 11.26895 | 30842 ft | 517 kts | 152° |
| 2026-05-06 22:13 | 21.41542 | 11.30932 | 30853 ft | 517 kts | 151° |
| 2026-05-06 22:13 | 21.35412 | 11.34963 | 30848 ft | 516 kts | 151° |
| 2026-05-06 22:14 | 21.29331 | 11.38958 | 30834 ft | 516 kts | 151° |
| 2026-05-06 22:14 | 21.23203 | 11.42979 | 30835 ft | 516 kts | 151° |
| 2026-05-06 22:15 | 21.17074 | 11.46998 | 30851 ft | 516 kts | 151° |
| 2026-05-06 22:15 | 21.10989 | 11.50985 | 30838 ft | 516 kts | 151° |
| 2026-05-06 22:16 | 21.04861 | 11.54998 | 30854 ft | 516 kts | 152° |
| 2026-05-06 22:16 | 20.98728 | 11.59005 | 30837 ft | 516 kts | 152° |
| 2026-05-06 22:17 | 20.92599 | 11.63007 | 30858 ft | 516 kts | 152° |
| 2026-05-06 22:17 | 20.86508 | 11.66982 | 30843 ft | 516 kts | 152° |
| 2026-05-06 22:18 | 20.80372 | 11.70982 | 30846 ft | 517 kts | 151° |
| 2026-05-06 22:18 | 20.74224 | 11.74986 | 30857 ft | 518 kts | 151° |
| 2026-05-06 22:19 | 20.68072 | 11.78990 | 30852 ft | 518 kts | 151° |
| 2026-05-06 22:19 | 20.61927 | 11.82985 | 30851 ft | 517 kts | 151° |
| 2026-05-06 22:20 | 20.55812 | 11.86957 | 30850 ft | 518 kts | 151° |
| 2026-05-06 22:20 | 20.49662 | 11.90951 | 30851 ft | 517 kts | 151° |
| 2026-05-06 22:21 | 20.43505 | 11.94936 | 30845 ft | 517 kts | 151° |
| 2026-05-06 22:21 | 20.37350 | 11.98917 | 30842 ft | 518 kts | 151° |
| 2026-05-06 22:22 | 20.31189 | 12.02901 | 30846 ft | 518 kts | 151° |
| 2026-05-06 22:22 | 20.25059 | 12.06860 | 30844 ft | 520 kts | 151° |
| 2026-05-06 22:23 | 20.18864 | 12.10858 | 30847 ft | 521 kts | 151° |
| 2026-05-06 22:23 | 20.12661 | 12.14859 | 30843 ft | 521 kts | 151° |
| 2026-05-06 22:24 | 20.06460 | 12.18854 | 30847 ft | 521 kts | 151° |
| 2026-05-06 22:24 | 20.00300 | 12.22819 | 30849 ft | 521 kts | 151° |
| 2026-05-06 22:25 | 19.94098 | 12.26807 | 30851 ft | 521 kts | 151° |
| 2026-05-06 22:25 | 19.87893 | 12.30793 | 30854 ft | 521 kts | 151° |
| 2026-05-06 22:26 | 19.81685 | 12.34777 | 30856 ft | 521 kts | 151° |
| 2026-05-06 22:26 | 19.75480 | 12.38757 | 30856 ft | 521 kts | 151° |
| 2026-05-06 22:27 | 19.69311 | 12.42708 | 30849 ft | 522 kts | 151° |
| 2026-05-06 22:27 | 19.63078 | 12.46697 | 30856 ft | 524 kts | 151° |
| 2026-05-06 22:28 | 19.56837 | 12.50689 | 30857 ft | 524 kts | 151° |
| 2026-05-06 22:28 | 19.50598 | 12.54675 | 30856 ft | 524 kts | 151° |
| 2026-05-06 22:29 | 19.44396 | 12.58634 | 30860 ft | 524 kts | 151° |
| 2026-05-06 22:29 | 19.38155 | 12.62614 | 30858 ft | 524 kts | 151° |
| 2026-05-06 22:30 | 19.31914 | 12.66590 | 30864 ft | 524 kts | 151° |
| 2026-05-06 22:30 | 19.25669 | 12.70566 | 30865 ft | 524 kts | 151° |
| 2026-05-06 22:31 | 19.19469 | 12.74509 | 30862 ft | 524 kts | 151° |
| 2026-05-06 22:31 | 19.13223 | 12.78478 | 30868 ft | 524 kts | 151° |
| 2026-05-06 22:32 | 19.06967 | 12.82450 | 30868 ft | 525 kts | 151° |
| 2026-05-06 22:32 | 19.00619 | 12.86234 | 30856 ft | 522 kts | 159° |
| 2026-05-06 22:33 | 18.93681 | 12.88124 | 30871 ft | 512 kts | 179° |
| 2026-05-06 22:33 | 18.86620 | 12.88552 | 30867 ft | 511 kts | 182° |
| 2026-05-06 22:34 | 18.79509 | 12.88735 | 30867 ft | 511 kts | 182° |
| 2026-05-06 22:34 | 18.72394 | 12.88915 | 30867 ft | 512 kts | 182° |
| 2026-05-06 22:35 | 18.65272 | 12.89132 | 30862 ft | 512 kts | 182° |
| 2026-05-06 22:35 | 18.58202 | 12.89365 | 30867 ft | 512 kts | 182° |
| 2026-05-06 22:36 | 18.51084 | 12.89602 | 30870 ft | 512 kts | 182° |
| 2026-05-06 22:36 | 18.43962 | 12.89838 | 30870 ft | 512 kts | 182° |
| 2026-05-06 22:37 | 18.36847 | 12.90072 | 30871 ft | 512 kts | 182° |
| 2026-05-06 22:37 | 18.29724 | 12.90306 | 30870 ft | 512 kts | 181° |
| 2026-05-06 22:38 | 18.22649 | 12.90538 | 30871 ft | 512 kts | 181° |
| 2026-05-06 22:38 | 18.15529 | 12.90771 | 30870 ft | 512 kts | 181° |
| 2026-05-06 22:39 | 18.08405 | 12.91005 | 30869 ft | 512 kts | 181° |
| 2026-05-06 22:39 | 18.01283 | 12.91239 | 30870 ft | 512 kts | 181° |
| 2026-05-06 22:40 | 17.94217 | 12.91470 | 30867 ft | 511 kts | 181° |
| 2026-05-06 22:40 | 17.87109 | 12.91703 | 30868 ft | 511 kts | 181° |
| 2026-05-06 22:41 | 17.76449 | 12.92051 | 30867 ft | 511 kts | 181° |
| 2026-05-06 22:42 | 17.69345 | 12.92282 | 30867 ft | 511 kts | 181° |
| 2026-05-06 22:42 | 17.62286 | 12.92513 | 30868 ft | 511 kts | 181° |
| 2026-05-06 22:43 | 17.55177 | 12.92744 | 30868 ft | 511 kts | 181° |
| 2026-05-06 22:43 | 17.48072 | 12.92976 | 30867 ft | 511 kts | 181° |
| 2026-05-06 22:44 | 17.40967 | 12.93207 | 30865 ft | 511 kts | 181° |
| 2026-05-06 22:44 | 17.33910 | 12.93437 | 30864 ft | 511 kts | 181° |
| 2026-05-06 22:45 | 17.26805 | 12.93671 | 30864 ft | 511 kts | 181° |
| 2026-05-06 22:45 | 17.19694 | 12.93900 | 30864 ft | 511 kts | 181° |
| 2026-05-06 22:46 | 17.12580 | 12.94129 | 30862 ft | 511 kts | 181° |
| 2026-05-06 22:46 | 17.05511 | 12.94358 | 30871 ft | 512 kts | 181° |
| 2026-05-06 22:47 | 16.98352 | 12.94588 | 30991 ft | 518 kts | 181° |
| 2026-05-06 22:47 | 16.91120 | 12.94821 | 31144 ft | 522 kts | 181° |
| 2026-05-06 22:47 | 16.87482 | 12.94939 | 31311 ft | 522 kts | 181° |
| 2026-05-06 22:48 | 16.83850 | 12.95058 | 31467 ft | 523 kts | 181° |
| 2026-05-06 22:48 | 16.80213 | 12.95176 | 31631 ft | 523 kts | 181° |
| 2026-05-06 22:48 | 16.76623 | 12.95293 | 31792 ft | 523 kts | 181° |
| 2026-05-06 22:48 | 16.72988 | 12.95410 | 31950 ft | 523 kts | 181° |
| 2026-05-06 22:49 | 16.69348 | 12.95528 | 32110 ft | 523 kts | 181° |
| 2026-05-06 22:49 | 16.65710 | 12.95646 | 32258 ft | 523 kts | 181° |
| 2026-05-06 22:49 | 16.62072 | 12.95763 | 32397 ft | 524 kts | 181° |
| 2026-05-06 22:49 | 16.58429 | 12.95880 | 32527 ft | 524 kts | 181° |
| 2026-05-06 22:50 | 16.54781 | 12.95997 | 32679 ft | 524 kts | 181° |
| 2026-05-06 22:50 | 16.51135 | 12.96115 | 32812 ft | 524 kts | 181° |
| 2026-05-06 22:50 | 16.47558 | 12.96231 | 32850 ft | 517 kts | 181° |
| 2026-05-06 22:51 | 16.40476 | 12.96464 | 32851 ft | 506 kts | 181° |
| 2026-05-06 22:51 | 16.33441 | 12.96688 | 32842 ft | 506 kts | 181° |
| 2026-05-06 22:52 | 16.26398 | 12.96911 | 32841 ft | 507 kts | 181° |
| 2026-05-06 22:52 | 16.19395 | 12.97135 | 32839 ft | 507 kts | 181° |
| 2026-05-06 22:53 | 16.12338 | 12.97362 | 32840 ft | 507 kts | 181° |
| 2026-05-06 22:53 | 16.05282 | 12.97589 | 32835 ft | 507 kts | 181° |
| 2026-05-06 22:54 | 15.98227 | 12.97815 | 32835 ft | 507 kts | 181° |
| 2026-05-06 22:54 | 15.91174 | 12.98040 | 32829 ft | 508 kts | 181° |
| 2026-05-06 22:55 | 15.84148 | 12.98263 | 32828 ft | 508 kts | 181° |
| 2026-05-06 22:55 | 15.77078 | 12.98489 | 32826 ft | 508 kts | 181° |
| 2026-05-06 22:56 | 15.70006 | 12.98714 | 32826 ft | 508 kts | 181° |
| 2026-05-06 22:56 | 15.62938 | 12.98939 | 32823 ft | 508 kts | 181° |
| 2026-05-06 22:57 | 15.55912 | 12.99162 | 32824 ft | 509 kts | 181° |
| 2026-05-06 22:57 | 15.48829 | 12.99387 | 32818 ft | 510 kts | 181° |
| 2026-05-06 22:58 | 15.41740 | 12.99612 | 32820 ft | 510 kts | 181° |
| 2026-05-06 22:58 | 15.34656 | 12.99837 | 32815 ft | 509 kts | 181° |
| 2026-05-06 22:59 | 15.27616 | 13.00060 | 32815 ft | 509 kts | 181° |
| 2026-05-06 22:59 | 15.20527 | 13.00285 | 32813 ft | 510 kts | 181° |
| 2026-05-06 23:00 | 15.13430 | 13.00510 | 32805 ft | 510 kts | 181° |
| 2026-05-06 23:00 | 15.06333 | 13.00734 | 32813 ft | 510 kts | 181° |